createdAt,value
2019-05-18T00:00:38.216Z,81.70
2019-05-18T00:03:05.817Z,82.90
2019-05-18T00:05:34.298Z,80.30
2019-05-18T00:08:01.844Z,79.60
2019-05-18T00:10:31.202Z,79.40
2019-05-18T00:12:59.251Z,80.10
2019-05-18T00:15:27.954Z,80.30
2019-05-18T00:17:59.468Z,80.30
2019-05-18T00:20:26.872Z,80.30
2019-05-18T00:22:56.758Z,82.20
2019-05-18T00:25:29.678Z,81.90
2019-05-18T00:27:57.101Z,80.70
2019-05-18T00:30:25.009Z,81.00
2019-05-18T00:32:52.652Z,82.90
2019-05-18T00:35:21.177Z,82.20
2019-05-18T00:37:48.953Z,82.90
2019-05-18T00:40:17.666Z,81.50
2019-05-18T00:42:45.250Z,82.30
2019-05-18T00:45:15.492Z,79.80
2019-05-18T00:47:43.260Z,80.80
2019-05-18T00:50:10.940Z,82.00
2019-05-18T00:52:45.515Z,83.00
2019-05-18T00:55:15.642Z,81.10
2019-05-18T00:57:43.621Z,81.20
2019-05-18T01:00:11.127Z,82.10
2019-05-18T01:02:41.300Z,80.70
2019-05-18T01:05:08.855Z,82.80
2019-05-18T01:07:38.782Z,82.70
2019-05-18T01:10:06.539Z,85.10
2019-05-18T01:12:36.186Z,83.30
2019-05-18T01:15:05.036Z,80.90
2019-05-18T01:17:33.141Z,82.10
2019-05-18T01:20:04.975Z,81.30
2019-05-18T01:22:38.053Z,82.90
2019-05-18T01:25:05.791Z,84.50
2019-05-18T01:27:33.154Z,83.10
2019-05-18T01:30:06.813Z,83.70
2019-05-18T01:32:34.279Z,85.50
2019-05-18T01:35:02.135Z,82.10
2019-05-18T01:37:29.654Z,81.40
2019-05-18T01:39:58.851Z,82.40
2019-05-18T01:42:29.182Z,82.50
2019-05-18T01:44:58.046Z,81.30
2019-05-18T01:47:25.686Z,80.10
2019-05-18T01:49:55.670Z,81.40
2019-05-18T01:52:23.343Z,82.50
2019-05-18T01:54:54.074Z,82.60
2019-05-18T01:57:25.607Z,84.00
2019-05-18T01:59:53.281Z,84.30
2019-05-18T02:02:20.838Z,83.80
2019-05-18T02:04:49.621Z,85.10
2019-05-18T02:07:17.455Z,84.10
2019-05-18T02:09:45.102Z,84.60
2019-05-18T02:12:12.712Z,85.60
2019-05-18T02:14:40.283Z,86.30
2019-05-18T02:17:08.022Z,84.90
2019-05-18T02:19:37.729Z,86.00
2019-05-18T02:22:05.815Z,85.80
2019-05-18T02:24:33.360Z,83.90
2019-05-18T02:27:11.581Z,85.60
2019-05-18T02:29:41.165Z,85.80
2019-05-18T02:32:08.845Z,87.20
2019-05-18T02:34:37.397Z,84.60
2019-05-18T02:37:05.030Z,86.20
2019-05-18T02:39:32.681Z,85.70
2019-05-18T02:42:00.678Z,86.70
2019-05-18T02:44:28.210Z,87.60
2019-05-18T02:46:56.699Z,87.50
2019-05-18T02:49:24.307Z,89.60
2019-05-18T02:51:51.899Z,89.40
2019-05-18T02:54:19.363Z,88.70
2019-05-18T02:56:47.835Z,89.60
2019-05-18T02:59:15.335Z,90.00
2019-05-18T03:01:42.979Z,89.50
2019-05-18T03:04:10.547Z,89.70
2019-05-18T03:06:38.036Z,89.90
2019-05-18T03:09:05.782Z,89.20
2019-05-18T03:11:33.249Z,89.60
2019-05-18T03:14:00.441Z,89.30
2019-05-18T03:16:28.060Z,88.30
2019-05-18T03:19:07.309Z,88.00
2019-05-18T03:21:24.848Z,89.20
2019-05-18T03:23:53.286Z,88.30
2019-05-18T03:26:28.466Z,87.50
2019-05-18T03:28:57.138Z,88.80
2019-05-18T03:31:24.804Z,88.40
2019-05-18T03:33:59.173Z,87.30
2019-05-18T03:36:26.422Z,87.90
2019-05-18T03:38:56.255Z,87.50
2019-05-18T03:41:23.698Z,87.20
2019-05-18T03:43:51.157Z,87.60
2019-05-18T03:46:18.625Z,87.20
2019-05-18T03:48:46.216Z,87.10
2019-05-18T03:51:13.775Z,88.00
2019-05-18T03:53:42.128Z,87.80
2019-05-18T03:56:09.830Z,86.80
2019-05-18T03:58:38.161Z,88.90
2019-05-18T04:01:07.049Z,88.30
2019-05-18T04:03:34.538Z,88.50
2019-05-18T04:06:05.144Z,88.10
2019-05-18T04:08:35.408Z,87.60
2019-05-18T04:11:03.896Z,88.80
2019-05-18T04:13:32.021Z,89.20
2019-05-18T04:16:00.604Z,87.70
2019-05-18T04:18:28.192Z,89.10
2019-05-18T04:20:56.261Z,88.30
2019-05-18T04:23:25.148Z,87.70
2019-05-18T04:25:52.370Z,87.80
2019-05-18T04:28:19.977Z,88.20
2019-05-18T04:30:52.598Z,88.40
2019-05-18T04:33:21.116Z,88.90
2019-05-18T04:35:56.433Z,88.80
2019-05-18T04:38:24.149Z,89.10
2019-05-18T04:40:52.481Z,89.20
2019-05-18T04:43:20.189Z,89.20
2019-05-18T04:45:47.919Z,89.50
2019-05-18T04:48:17.420Z,87.80
2019-05-18T04:50:44.934Z,88.70
2019-05-18T04:53:14.626Z,88.10
2019-05-18T04:55:43.263Z,89.10
2019-05-18T04:58:10.824Z,87.90
2019-05-18T05:00:46.533Z,88.10
2019-05-18T05:03:14.133Z,88.30
2019-05-18T05:05:44.515Z,88.60
2019-05-18T05:08:11.987Z,88.70
2019-05-18T05:10:40.781Z,89.50
2019-05-18T05:13:08.319Z,88.90
2019-05-18T05:15:35.795Z,88.50
2019-05-18T05:18:06.713Z,89.20
2019-05-18T05:20:44.141Z,89.30
2019-05-18T05:23:12.895Z,87.80
2019-05-18T05:25:40.580Z,88.70
2019-05-18T05:28:14.572Z,89.10
2019-05-18T05:30:42.485Z,88.50
2019-05-18T05:33:13.321Z,88.00
2019-05-18T05:35:43.380Z,89.00
2019-05-18T05:38:14.855Z,88.70
2019-05-18T05:40:48.187Z,88.20
2019-05-18T05:43:22.866Z,88.60
2019-05-18T05:45:55.791Z,87.60
2019-05-18T05:48:28.673Z,88.00
2019-05-18T05:50:57.077Z,88.90
2019-05-18T05:53:28.205Z,87.70
2019-05-18T05:55:55.967Z,87.40
2019-05-18T05:58:29.310Z,87.10
2019-05-18T06:00:58.364Z,87.50
2019-05-18T06:03:27.977Z,86.60
2019-05-18T06:05:58.989Z,86.60
2019-05-18T06:08:26.639Z,85.70
2019-05-18T06:10:54.311Z,85.70
2019-05-18T06:13:21.798Z,85.50
2019-05-18T06:15:51.916Z,84.70
2019-05-18T06:18:19.575Z,85.00
2019-05-18T06:20:51.585Z,84.20
2019-05-18T06:23:16.846Z,86.50
2019-05-18T06:25:44.397Z,84.10
2019-05-18T06:28:12.070Z,80.30
2019-05-18T06:30:39.566Z,77.70
2019-05-18T06:33:07.284Z,79.30
2019-05-18T06:35:36.384Z,79.40
2019-05-18T06:38:06.149Z,79.70
2019-05-18T06:40:35.622Z,74.20
2019-05-18T06:43:03.826Z,73.30
2019-05-18T06:45:32.508Z,72.50
2019-05-18T06:48:00.232Z,73.30
2019-05-18T06:50:29.527Z,70.00
2019-05-18T06:52:57.316Z,70.00
2019-05-18T06:55:27.719Z,70.30
2019-05-18T06:57:59.052Z,68.20
2019-05-18T07:00:26.870Z,69.40
2019-05-18T07:02:54.453Z,71.90
2019-05-18T07:05:26.579Z,71.00
2019-05-18T07:07:57.518Z,67.40
2019-05-18T07:10:26.896Z,65.80
2019-05-18T07:12:56.414Z,65.80
2019-05-18T07:15:24.311Z,66.20
2019-05-18T07:17:52.196Z,63.40
2019-05-18T07:20:23.884Z,64.60
2019-05-18T07:22:51.506Z,63.50
2019-05-18T07:25:19.005Z,61.80
2019-05-18T07:27:48.614Z,59.70
2019-05-18T07:30:18.064Z,55.50
2019-05-18T07:32:45.563Z,56.60
2019-05-18T07:35:13.337Z,58.90
2019-05-18T07:37:40.755Z,57.40
2019-05-18T07:40:08.305Z,55.40
2019-05-18T07:42:35.934Z,53.80
2019-05-18T07:45:04.204Z,54.70
2019-05-18T07:47:33.817Z,55.80
2019-05-18T07:50:01.496Z,51.10
2019-05-18T07:52:33.158Z,52.80
2019-05-18T07:55:00.902Z,52.30
2019-05-18T07:57:31.187Z,49.80
2019-05-18T07:59:59.550Z,50.30
2019-05-18T08:02:27.053Z,47.80
2019-05-18T08:04:54.797Z,50.60
2019-05-18T08:07:22.742Z,50.30
2019-05-18T08:09:51.294Z,48.30
2019-05-18T08:12:46.538Z,48.00
2019-05-18T08:15:15.462Z,48.60
2019-05-18T08:17:46.482Z,46.00
2019-05-18T08:20:14.724Z,47.20
2019-05-18T08:22:42.264Z,44.10
2019-05-18T08:25:09.900Z,46.10
2019-05-18T08:27:37.679Z,44.90
2019-05-18T08:30:09.016Z,44.10
2019-05-18T08:32:38.231Z,45.50
2019-05-18T08:35:06.432Z,43.90
2019-05-18T08:37:35.965Z,42.10
2019-05-18T08:40:04.219Z,44.00
2019-05-18T08:42:33.251Z,41.20
2019-05-18T08:45:04.040Z,42.70
2019-05-18T08:47:31.784Z,43.30
2019-05-18T08:49:59.475Z,41.50
2019-05-18T08:52:30.085Z,42.90
2019-05-18T08:54:58.470Z,42.00
2019-05-18T08:57:33.272Z,39.40
2019-05-18T09:00:02.962Z,41.20
2019-05-18T09:02:30.768Z,40.40
2019-05-18T09:04:59.818Z,39.60
2019-05-18T09:07:31.485Z,39.30
2019-05-18T09:10:01.388Z,37.70
2019-05-18T09:12:32.113Z,39.70
2019-05-18T09:14:59.629Z,40.40
2019-05-18T09:17:27.257Z,39.90
2019-05-18T09:20:04.378Z,40.90
2019-05-18T09:22:38.763Z,39.00
2019-05-18T09:25:06.359Z,38.70
2019-05-18T09:27:34.911Z,37.00
2019-05-18T09:30:09.066Z,36.50
2019-05-18T09:32:41.305Z,36.10
2019-05-18T09:35:09.807Z,37.80
2019-05-18T09:37:38.243Z,39.00
2019-05-18T09:40:13.550Z,36.10
2019-05-18T09:42:41.140Z,37.00
2019-05-18T09:45:12.185Z,36.20
2019-05-18T09:47:40.001Z,37.20
2019-05-18T09:50:07.666Z,36.20
2019-05-18T09:52:45.331Z,34.20
2019-05-18T09:55:12.307Z,34.80
2019-05-18T09:57:39.744Z,35.80
2019-05-18T10:00:08.308Z,36.20
2019-05-18T10:02:35.792Z,35.50
2019-05-18T10:05:03.856Z,36.00
2019-05-18T10:07:35.931Z,38.00
2019-05-18T10:10:05.255Z,36.30
2019-05-18T10:12:45.767Z,37.10
2019-05-18T10:15:26.701Z,39.30
2019-05-18T10:17:59.133Z,38.50
2019-05-18T10:20:28.580Z,39.10
2019-05-18T10:26:43.031Z,38.60
2019-05-18T10:29:52.621Z,40.30
2019-05-18T10:33:21.334Z,40.30
2019-05-18T10:36:49.854Z,40.30
2019-05-18T10:39:21.800Z,41.30
2019-05-18T10:41:58.595Z,41.40
2019-05-18T10:44:40.062Z,43.00
2019-05-18T10:47:11.862Z,42.90
2019-05-18T10:49:42.533Z,42.90
2019-05-18T10:52:34.177Z,44.30
2019-05-18T10:55:22.349Z,43.70
2019-05-18T10:58:01.629Z,44.30
2019-05-18T11:00:39.574Z,44.10
2019-05-18T11:03:40.359Z,45.30
2019-05-18T11:06:28.057Z,45.30
2019-05-18T11:09:57.416Z,45.40
2019-05-18T11:12:53.116Z,45.60
2019-05-18T11:15:24.088Z,45.20
2019-05-18T11:17:57.508Z,45.80
2019-05-18T11:20:25.229Z,45.20
2019-05-18T11:23:02.643Z,45.00
2019-05-18T11:25:30.916Z,45.70
2019-05-18T11:28:00.556Z,46.40
2019-05-18T11:30:33.346Z,46.10
2019-05-18T11:33:02.373Z,45.60
2019-05-18T11:35:30.785Z,46.30
2019-05-18T11:37:58.977Z,46.40
2019-05-18T11:40:28.496Z,46.20
2019-05-18T11:42:59.032Z,46.70
2019-05-18T11:45:30.876Z,47.30
2019-05-18T11:47:58.436Z,46.60
2019-05-18T11:50:33.179Z,46.10
2019-05-18T11:53:01.498Z,46.50
2019-05-18T11:55:36.648Z,47.20
2019-05-18T11:58:04.793Z,45.90
2019-05-18T12:00:34.187Z,46.50
2019-05-18T12:03:02.671Z,47.00
2019-05-18T12:05:31.453Z,47.10
2019-05-18T12:08:01.328Z,46.80
2019-05-18T12:10:28.946Z,47.10
2019-05-18T12:13:00.482Z,46.40
2019-05-18T12:15:28.787Z,46.50
2019-05-18T12:17:56.122Z,47.40
2019-05-18T12:20:24.088Z,47.40
2019-05-18T12:22:52.780Z,46.20
2019-05-18T12:25:21.534Z,47.40
2019-05-18T12:27:50.010Z,47.90
2019-05-18T12:30:17.507Z,48.00
2019-05-18T12:32:45.655Z,47.50
2019-05-18T12:35:14.393Z,47.80
2019-05-18T12:37:42.163Z,47.20
2019-05-18T12:40:13.851Z,47.90
2019-05-18T12:42:41.311Z,47.60
2019-05-18T12:45:09.085Z,47.30
2019-05-18T12:47:37.080Z,47.40
2019-05-18T12:50:06.275Z,48.10
2019-05-18T12:52:34.952Z,48.10
2019-05-18T12:55:06.357Z,48.10
2019-05-18T12:57:36.982Z,48.70
2019-05-18T13:00:07.157Z,47.90
2019-05-18T13:02:35.041Z,47.00
2019-05-18T13:05:05.946Z,47.50
2019-05-18T13:07:36.342Z,48.10
2019-05-18T13:10:04.995Z,46.60
2019-05-18T13:12:33.141Z,47.70
2019-05-18T13:15:03.719Z,48.00
2019-05-18T13:17:31.478Z,47.90
2019-05-18T13:19:59.446Z,48.00
2019-05-18T13:22:28.354Z,47.70
2019-05-18T13:24:58.441Z,47.40
2019-05-18T13:27:38.864Z,47.50
2019-05-18T13:30:00.052Z,48.40
2019-05-18T13:32:28.449Z,48.50
2019-05-18T13:34:56.401Z,48.30
2019-05-18T13:37:25.174Z,47.00
2019-05-18T13:39:53.178Z,46.80
2019-05-18T13:42:21.004Z,47.90
2019-05-18T13:44:48.510Z,47.20
2019-05-18T13:47:20.324Z,44.90
2019-05-18T13:49:51.035Z,42.80
2019-05-18T13:52:18.884Z,43.00
2019-05-18T13:55:02.179Z,45.00
2019-05-18T13:57:29.897Z,41.90
2019-05-18T14:00:13.646Z,40.70
2019-05-18T14:02:40.409Z,44.80
2019-05-18T14:05:09.797Z,42.70
2019-05-18T14:07:38.699Z,43.00
2019-05-18T14:10:07.393Z,43.00
2019-05-18T14:12:38.351Z,41.20
2019-05-18T14:15:07.825Z,43.60
2019-05-18T14:17:36.642Z,43.40
2019-05-18T14:20:04.182Z,42.80
2019-05-18T14:22:46.384Z,43.10
2019-05-18T14:25:19.755Z,42.70
2019-05-18T14:27:53.684Z,42.90
2019-05-18T14:30:23.192Z,41.90
2019-05-18T14:32:50.731Z,42.60
2019-05-18T14:35:19.979Z,42.20
2019-05-18T14:37:48.895Z,41.50
2019-05-18T14:40:16.620Z,41.80
2019-05-18T14:42:44.065Z,42.40
2019-05-18T14:45:11.637Z,42.90
2019-05-18T14:47:52.585Z,43.10
2019-05-18T14:50:20.489Z,44.20
2019-05-18T14:52:48.355Z,44.60
2019-05-18T14:55:16.608Z,46.30
2019-05-18T14:57:44.259Z,47.70
2019-05-18T15:00:11.865Z,48.20
2019-05-18T15:02:40.036Z,49.30
2019-05-18T15:05:07.770Z,53.20
2019-05-18T15:07:35.570Z,57.50
2019-05-18T15:10:08.148Z,55.90
2019-05-18T15:12:42.697Z,56.60
2019-05-18T15:15:10.267Z,57.90
2019-05-18T15:17:41.413Z,58.90
2019-05-18T15:20:09.095Z,57.90
2019-05-18T15:22:36.640Z,57.10
2019-05-18T15:25:04.334Z,59.30
2019-05-18T15:27:34.021Z,61.00
2019-05-18T15:30:02.026Z,61.80
2019-05-18T15:32:33.161Z,63.70
2019-05-18T15:35:03.517Z,62.80
2019-05-18T15:37:30.997Z,63.10
2019-05-18T15:39:58.604Z,64.80
2019-05-18T15:42:31.403Z,66.80
2019-05-18T15:45:04.414Z,66.60
2019-05-18T15:47:41.714Z,66.10
2019-05-18T15:50:09.402Z,65.80
2019-05-18T15:52:37.823Z,64.80
2019-05-18T15:55:05.460Z,65.90
2019-05-18T15:57:33.915Z,67.10
2019-05-18T16:00:01.226Z,67.70
2019-05-18T16:02:28.847Z,66.60
2019-05-18T16:04:56.481Z,67.20
2019-05-18T16:07:23.979Z,66.80
2019-05-18T16:09:51.626Z,68.00
2019-05-18T16:12:19.145Z,69.60
2019-05-18T16:14:49.868Z,69.60
2019-05-18T16:17:17.272Z,70.30
2019-05-18T16:19:44.400Z,70.10
2019-05-18T16:22:18.823Z,72.00
2019-05-18T16:24:46.875Z,72.00
2019-05-18T16:27:15.392Z,71.70
2019-05-18T16:29:42.954Z,71.20
2019-05-18T16:32:17.193Z,71.80
2019-05-18T16:34:44.783Z,72.10
2019-05-18T16:37:14.263Z,71.10
2019-05-18T16:39:41.717Z,71.00
2019-05-18T16:42:10.484Z,70.40
2019-05-18T16:44:39.267Z,70.90
2019-05-18T16:47:06.744Z,72.50
2019-05-18T16:49:34.890Z,73.60
2019-05-18T16:52:02.465Z,71.00
2019-05-18T16:54:32.527Z,72.20
2019-05-18T16:57:00.144Z,73.70
2019-05-18T16:59:27.577Z,72.70
2019-05-18T17:01:59.444Z,74.20
2019-05-18T17:04:26.814Z,73.20
2019-05-18T17:06:55.583Z,71.20
2019-05-18T17:09:23.196Z,73.40
2019-05-18T17:11:51.658Z,73.30
2019-05-18T17:14:19.102Z,73.80
2019-05-18T17:16:47.121Z,74.80
2019-05-18T17:19:15.654Z,74.00
2019-05-18T17:21:43.376Z,73.30
2019-05-18T17:24:18.468Z,74.00
2019-05-18T17:26:52.841Z,74.50
2019-05-18T17:29:18.113Z,73.50
2019-05-18T17:31:46.097Z,76.50
2019-05-18T17:34:16.210Z,74.20
2019-05-18T17:36:46.966Z,75.60
2019-05-18T17:39:15.579Z,74.80
2019-05-18T17:41:44.485Z,74.20
2019-05-18T17:44:12.509Z,75.50
2019-05-18T17:46:44.989Z,76.90
2019-05-18T17:49:25.862Z,76.90
2019-05-18T17:51:44.237Z,75.60
2019-05-18T17:54:11.782Z,76.60
2019-05-18T17:56:39.282Z,77.40
2019-05-18T17:59:07.716Z,75.40
2019-05-18T18:02:25.034Z,76.00
2019-05-18T18:04:54.157Z,75.80
2019-05-18T18:07:22.850Z,76.10
2019-05-18T18:09:51.499Z,76.30
2019-05-18T18:12:22.507Z,76.20
2019-05-18T18:15:00.172Z,76.70
2019-05-18T18:17:28.380Z,77.20
2019-05-18T18:20:00.963Z,76.50
2019-05-18T18:22:28.464Z,77.50
2019-05-18T18:24:58.087Z,77.10
2019-05-18T18:27:29.716Z,76.10
2019-05-18T18:30:05.188Z,78.40
2019-05-18T18:32:34.109Z,77.20
2019-05-18T18:35:06.039Z,77.00
2019-05-18T18:37:34.673Z,77.10
2019-05-18T18:40:03.872Z,77.10
2019-05-18T18:42:33.172Z,77.30
2019-05-18T18:45:01.016Z,76.60
2019-05-18T18:47:29.509Z,75.70
2019-05-18T18:49:57.107Z,76.60
2019-05-18T18:52:24.915Z,75.30
2019-05-18T18:54:52.685Z,77.30
2019-05-18T18:57:20.739Z,76.20
2019-05-18T18:59:51.335Z,76.50
2019-05-18T19:02:19.998Z,75.80
2019-05-18T19:04:51.518Z,75.30
2019-05-18T19:07:25.066Z,77.50
2019-05-18T19:09:52.727Z,77.20
2019-05-18T19:12:20.637Z,76.00
2019-05-18T19:14:49.467Z,77.00
2019-05-18T19:17:25.504Z,76.40
2019-05-18T19:19:53.091Z,77.90
2019-05-18T19:22:21.092Z,76.90
2019-05-18T19:24:51.771Z,75.90
2019-05-18T19:27:19.152Z,77.00
2019-05-18T19:29:46.795Z,77.00
2019-05-18T19:32:14.824Z,77.50
2019-05-18T19:34:42.502Z,76.60
2019-05-18T19:37:13.317Z,76.90
2019-05-18T19:39:45.171Z,76.50
2019-05-18T19:42:13.359Z,77.40
2019-05-18T19:44:41.573Z,77.60
2019-05-18T19:47:10.099Z,78.30
2019-05-18T19:49:37.797Z,77.40
2019-05-18T19:52:06.213Z,78.30
2019-05-18T19:54:33.910Z,79.10
2019-05-18T19:57:01.460Z,77.90
2019-05-18T19:59:29.991Z,77.70
2019-05-18T20:01:57.646Z,77.30
2019-05-18T20:04:25.364Z,78.70
2019-05-18T20:06:54.142Z,78.60
2019-05-18T20:09:22.187Z,78.60
2019-05-18T20:11:49.865Z,78.60
2019-05-18T20:14:17.333Z,78.70
2019-05-18T20:16:45.140Z,80.70
2019-05-18T20:19:14.421Z,78.90
2019-05-18T20:21:42.203Z,79.50
2019-05-18T20:24:09.978Z,80.00
2019-05-18T20:26:37.404Z,80.40
2019-05-18T20:29:05.279Z,80.50
2019-05-18T20:31:33.312Z,82.10
2019-05-18T20:34:01.228Z,79.90
2019-05-18T20:36:29.430Z,80.10
2019-05-18T20:38:57.936Z,81.60
2019-05-18T20:41:25.657Z,80.70
2019-05-18T20:43:53.235Z,80.40
2019-05-18T20:46:20.992Z,79.70
2019-05-18T20:48:48.710Z,81.90
2019-05-18T20:51:16.907Z,82.20
2019-05-18T20:55:04.874Z,81.50
2019-05-18T20:57:33.370Z,80.70
2019-05-18T21:00:01.428Z,79.50
2019-05-18T21:02:31.511Z,79.40
2019-05-18T21:04:59.798Z,80.20
2019-05-18T21:07:27.345Z,80.00
2019-05-18T21:09:55.542Z,79.90
2019-05-18T21:12:23.197Z,80.00
2019-05-18T21:14:51.141Z,80.50
2019-05-18T21:17:19.447Z,79.50
2019-05-18T21:19:47.140Z,80.00
2019-05-18T21:22:14.771Z,80.30
2019-05-18T21:24:43.215Z,80.60
2019-05-18T21:27:11.266Z,80.80
2019-05-18T21:29:44.532Z,81.00
2019-05-18T21:32:14.294Z,83.00
2019-05-18T21:34:42.366Z,83.20
2019-05-18T21:37:09.758Z,81.50
2019-05-18T21:39:37.371Z,81.10
2019-05-18T21:42:05.649Z,81.00
2019-05-18T21:44:33.018Z,82.00
2019-05-18T21:47:00.677Z,82.10
2019-05-18T21:49:28.395Z,81.70
2019-05-18T21:51:56.761Z,81.10
2019-05-18T21:54:26.228Z,83.20
2019-05-18T21:56:54.543Z,80.90
2019-05-18T21:59:23.318Z,81.90
2019-05-18T22:01:50.710Z,82.70
2019-05-18T22:04:18.099Z,82.70
2019-05-18T22:06:48.992Z,82.20
2019-05-18T22:09:16.790Z,82.30
2019-05-18T22:11:44.063Z,83.90
2019-05-18T22:14:13.560Z,82.10
2019-05-18T22:16:42.080Z,81.60
2019-05-18T22:19:09.545Z,83.60
2019-05-18T22:21:39.659Z,82.40
2019-05-18T22:24:07.271Z,83.70
2019-05-18T22:26:36.278Z,83.50
2019-05-18T22:29:04.234Z,82.60
2019-05-18T22:31:32.308Z,82.80
2019-05-18T22:34:00.049Z,82.40
2019-05-18T22:36:27.708Z,82.70
2019-05-18T22:38:56.463Z,81.70
2019-05-18T22:41:25.175Z,83.20
2019-05-18T22:43:53.647Z,83.60
2019-05-18T22:46:22.780Z,83.20
2019-05-18T22:48:51.373Z,86.10
2019-05-18T22:51:19.043Z,84.30
2019-05-18T22:53:47.871Z,85.10
2019-05-18T22:56:15.338Z,84.70
2019-05-18T22:58:43.822Z,83.50
2019-05-18T23:01:11.480Z,84.00
2019-05-18T23:03:51.884Z,82.70
2019-05-18T23:06:19.547Z,84.60
2019-05-18T23:08:47.878Z,82.80
2019-05-18T23:11:16.549Z,83.20
2019-05-18T23:13:44.219Z,84.20
2019-05-18T23:16:13.116Z,83.20
2019-05-18T23:18:55.641Z,84.90
2019-05-18T23:21:11.511Z,85.10
2019-05-18T23:23:39.724Z,83.40
2019-05-18T23:26:11.631Z,85.40
2019-05-18T23:28:42.284Z,84.60
2019-05-18T23:31:10.033Z,84.20
2019-05-18T23:33:48.447Z,83.70
2019-05-18T23:36:16.242Z,86.90
2019-05-18T23:38:50.230Z,84.60
2019-05-18T23:41:18.981Z,85.50
2019-05-18T23:43:48.568Z,85.50
2019-05-18T23:46:17.240Z,87.10
2019-05-18T23:48:48.040Z,84.90
2019-05-18T23:51:16.283Z,85.60
2019-05-18T23:53:49.662Z,85.00
2019-05-18T23:56:18.454Z,85.60
2019-05-18T23:58:46.472Z,87.10
